Time;durP1;ratioP1;P1;durP2;ratioP2;P2;SDS_P1;SDS_P2;PMS_P1;PMS_P2;Temp;Humidity;BMP_temperature;BMP_pressure;BME280_temperature;BME280_humidity;BME280_pressure;Samples;Min_cycle;Max_cycle;Signal;HPM_P1;HPM_P2
2024/01/05 00:00:54;;;;;;;1.73;1.05;;;23.00;44.50;;;;;;6226391;27;80470;-67
2024/01/05 00:03:55;;;;;;;1.73;1.02;;;23.00;44.50;;;;;;6225722;27;80730;-65
2024/01/05 00:06:55;;;;;;;1.38;1.08;;;23.00;44.30;;;;;;6228216;27;80404;-65
2024/01/05 00:09:56;;;;;;;1.33;0.88;;;23.00;44.30;;;;;;6226077;27;80574;-65
2024/01/05 00:12:56;;;;;;;1.15;0.80;;;23.00;44.40;;;;;;6223531;27;80841;-60
2024/01/05 00:15:57;;;;;;;1.67;1.20;;;23.00;44.30;;;;;;6225621;27;80401;-60
2024/01/05 00:18:57;;;;;;;2.35;0.90;;;22.90;44.40;;;;;;6228594;27;80418;-60
2024/01/05 00:21:58;;;;;;;1.95;1.05;;;23.00;44.30;;;;;;6227111;27;80643;-60
2024/01/05 00:24:58;;;;;;;1.58;1.02;;;23.00;44.30;;;;;;6228048;27;81476;-59
2024/01/05 00:27:59;;;;;;;1.10;0.80;;;23.00;44.20;;;;;;6226541;27;80734;-59
2024/01/05 00:31:00;;;;;;;1.02;0.90;;;23.00;44.20;;;;;;6226898;27;83250;-53
2024/01/05 00:34:00;;;;;;;1.10;0.85;;;22.90;44.10;;;;;;6226453;27;81926;-52
2024/01/05 00:37:01;;;;;;;1.45;0.93;;;22.90;44.00;;;;;;6227137;27;80374;-49
2024/01/05 00:40:02;;;;;;;1.42;0.82;;;22.90;44.00;;;;;;6201814;28;87087;-51
2024/01/05 00:43:02;;;;;;;1.90;1.13;;;22.90;43.80;;;;;;6212909;27;80600;-52
2024/01/05 00:46:03;;;;;;;1.58;1.00;;;22.90;43.70;;;;;;6207556;28;80520;-51
2024/01/05 00:49:03;;;;;;;1.77;0.95;;;22.90;43.80;;;;;;6202116;27;80354;-52
2024/01/05 00:52:04;;;;;;;1.15;0.95;;;22.80;43.70;;;;;;6216596;27;80393;-50
2024/01/05 00:55:04;;;;;;;1.70;1.10;;;22.80;43.70;;;;;;6204324;27;82477;-53
2024/01/05 00:58:05;;;;;;;1.83;1.00;;;22.90;43.80;;;;;;6218236;27;80213;-55
2024/01/05 01:01:05;;;;;;;1.38;0.85;;;22.80;43.80;;;;;;6206819;28;82470;-56
2024/01/05 01:04:06;;;;;;;1.67;1.33;;;22.80;43.80;;;;;;6218439;27;80822;-53
2024/01/05 01:07:06;;;;;;;1.52;1.00;;;22.80;43.90;;;;;;6225742;27;81497;-48
2024/01/05 01:10:07;;;;;;;0.93;0.70;;;22.80;45.00;;;;;;6215070;27;80279;-51
2024/01/05 01:13:07;;;;;;;1.85;1.00;;;22.80;44.20;;;;;;6225447;27;80263;-50
2024/01/05 01:16:08;;;;;;;2.70;1.10;;;22.80;44.40;;;;;;6225168;27;80467;-48
2024/01/05 01:19:08;;;;;;;1.20;0.90;;;22.90;44.40;;;;;;6225324;27;80825;-52
2024/01/05 01:22:09;;;;;;;2.15;1.00;;;22.90;44.40;;;;;;6216911;27;80485;-49
2024/01/05 01:25:09;;;;;;;1.48;0.90;;;22.80;44.30;;;;;;6201518;28;80165;-49
2024/01/05 01:28:10;;;;;;;1.13;0.98;;;22.80;44.30;;;;;;6201593;27;80625;-51
2024/01/05 01:31:10;;;;;;;1.77;1.00;;;22.90;44.30;;;;;;6211220;27;81765;-53
2024/01/05 01:34:11;;;;;;;1.50;1.00;;;22.90;44.30;;;;;;6201167;27;80072;-51
2024/01/05 01:37:11;;;;;;;1.35;0.80;;;22.90;44.30;;;;;;6201368;28;80767;-52
2024/01/05 01:40:12;;;;;;;1.95;0.88;;;22.80;44.20;;;;;;6216752;28;81176;-51
2024/01/05 01:43:12;;;;;;;0.88;0.70;;;22.90;44.20;;;;;;6225656;27;80361;-58
2024/01/05 01:46:13;;;;;;;0.88;0.75;;;22.80;44.20;;;;;;6212273;27;81989;-59
2024/01/05 01:49:13;;;;;;;1.23;0.80;;;22.90;44.50;;;;;;6206624;27;81662;-60
2024/01/05 01:52:14;;;;;;;1.10;0.80;;;22.80;44.60;;;;;;6201462;27;80970;-58
2024/01/05 01:55:16;;;;;;;1.17;0.90;;;22.80;44.50;;;;;;6210849;27;80428;-60
2024/01/05 01:58:17;;;;;;;1.48;0.80;;;22.80;44.60;;;;;;6224735;27;82751;-58
2024/01/05 02:01:17;;;;;;;2.30;0.90;;;22.80;44.50;;;;;;6221271;27;81551;-59
2024/01/05 02:04:18;;;;;;;1.92;0.70;;;22.80;44.60;;;;;;6222408;27;81335;-59
2024/01/05 02:07:18;;;;;;;1.90;1.00;;;22.80;44.30;;;;;;6211928;28;80813;-60
2024/01/05 02:10:19;;;;;;;1.95;1.33;;;22.80;44.80;;;;;;6217942;27;80855;-61
2024/01/05 02:13:19;;;;;;;2.03;1.05;;;22.80;44.00;;;;;;6219485;27;80747;-59
2024/01/05 02:16:20;;;;;;;2.20;1.13;;;22.80;44.00;;;;;;6220687;27;80546;-60
2024/01/05 02:19:20;;;;;;;1.13;1.00;;;22.80;44.00;;;;;;6223366;27;80972;-60
2024/01/05 02:22:21;;;;;;;1.73;0.82;;;22.80;43.80;;;;;;6205022;28;80210;-59
2024/01/05 02:25:21;;;;;;;1.50;0.90;;;22.80;43.90;;;;;;6208603;27;80766;-60
2024/01/05 02:28:22;;;;;;;1.38;0.90;;;22.80;44.10;;;;;;6204418;27;80737;-60
2024/01/05 02:31:22;;;;;;;1.20;0.80;;;22.80;44.30;;;;;;6222161;27;80388;-59
2024/01/05 02:34:23;;;;;;;1.25;0.93;;;22.80;44.60;;;;;;6228598;27;80502;-60
2024/01/05 02:37:23;;;;;;;1.75;1.10;;;22.80;44.50;;;;;;6228560;27;81584;-60
2024/01/05 02:40:24;;;;;;;2.20;1.00;;;22.80;44.30;;;;;;6229317;27;82674;-58
2024/01/05 02:43:24;;;;;;;2.78;1.00;;;22.80;44.30;;;;;;6228871;27;80181;-60
2024/01/05 02:46:25;;;;;;;1.17;0.80;;;22.80;44.40;;;;;;6227799;27;80403;-60
2024/01/05 02:49:25;;;;;;;0.93;0.73;;;22.80;44.20;;;;;;6228114;27;81824;-60
2024/01/05 02:52:26;;;;;;;1.10;0.90;;;22.80;44.30;;;;;;6227648;27;80807;-60
2024/01/05 02:55:26;;;;;;;1.95;0.93;;;22.80;43.60;;;;;;6226256;27;80049;-60
2024/01/05 02:58:27;;;;;;;1.40;0.80;;;22.80;43.60;;;;;;6228347;27;81740;-68
2024/01/05 03:01:27;;;;;;;1.48;1.02;;;22.80;43.60;;;;;;6228024;27;82273;-67
2024/01/05 03:04:28;;;;;;;0.88;0.70;;;22.80;43.60;;;;;;6223283;27;80331;-67
2024/01/05 03:07:28;;;;;;;1.77;0.75;;;22.80;43.50;;;;;;6227904;27;80836;-66
2024/01/05 03:10:29;;;;;;;2.30;1.10;;;22.80;43.40;;;;;;6223860;27;81642;-65
2024/01/05 03:13:29;;;;;;;2.65;1.05;;;22.80;43.30;;;;;;6205076;27;80657;-66
2024/01/05 03:16:30;;;;;;;1.23;1.00;;;22.80;43.40;;;;;;6204969;27;81204;-59
2024/01/05 03:19:30;;;;;;;1.33;0.93;;;22.80;43.60;;;;;;6216403;27;80365;-59
2024/01/05 03:22:31;;;;;;;1.02;0.73;;;22.80;43.60;;;;;;6219055;28;81235;-60
2024/01/05 03:25:32;;;;;;;1.48;1.08;;;22.80;43.50;;;;;;6203223;27;80495;-59
2024/01/05 03:28:33;;;;;;;3.83;1.02;;;22.70;43.20;;;;;;6203874;27;81473;-59
2024/01/05 03:31:33;;;;;;;1.63;1.10;;;22.80;43.40;;;;;;6217804;28;81564;-59
2024/01/05 03:34:34;;;;;;;2.30;1.27;;;22.80;43.20;;;;;;6218693;27;80708;-59
2024/01/05 03:37:34;;;;;;;1.10;1.00;;;22.70;43.10;;;;;;6220790;27;80586;-61
2024/01/05 03:40:35;;;;;;;1.42;0.93;;;22.70;43.10;;;;;;6217294;27;80703;-59
2024/01/05 03:43:35;;;;;;;1.30;0.80;;;22.80;43.10;;;;;;6218322;27;81098;-60
2024/01/05 03:46:36;;;;;;;1.92;1.10;;;22.70;43.10;;;;;;6219626;27;80404;-60
2024/01/05 03:49:36;;;;;;;1.55;0.93;;;22.80;43.30;;;;;;6219705;27;80956;-59
2024/01/05 03:52:37;;;;;;;1.67;1.13;;;22.80;43.40;;;;;;6207395;27;86383;-66
2024/01/05 03:55:37;;;;;;;1.70;1.05;;;22.70;43.20;;;;;;6207519;27;82950;-65
2024/01/05 03:58:38;;;;;;;1.60;0.80;;;22.70;43.20;;;;;;6202710;27;82537;-64
2024/01/05 04:01:38;;;;;;;1.23;0.90;;;22.70;43.30;;;;;;6220338;28;81283;-65
2024/01/05 04:04:39;;;;;;;1.95;0.90;;;22.70;43.50;;;;;;6215362;27;80647;-64
2024/01/05 04:07:39;;;;;;;1.23;0.70;;;22.80;43.40;;;;;;6221529;27;80504;-64
2024/01/05 04:10:40;;;;;;;1.73;1.10;;;22.80;43.40;;;;;;6209367;27;81059;-49
2024/01/05 04:13:40;;;;;;;1.42;0.90;;;22.80;43.40;;;;;;6213655;28;80407;-51
2024/01/05 04:16:41;;;;;;;1.83;1.00;;;22.80;43.30;;;;;;6218617;27;80343;-54
2024/01/05 04:19:41;;;;;;;1.25;0.98;;;22.80;43.40;;;;;;6221527;27;80863;-55
2024/01/05 04:22:42;;;;;;;2.25;1.42;;;22.70;43.40;;;;;;6216888;28;86254;-51
2024/01/05 04:25:42;;;;;;;1.35;1.02;;;22.70;43.60;;;;;;6202477;27;80719;-53
2024/01/05 04:28:43;;;;;;;1.30;0.90;;;22.70;43.50;;;;;;6216208;27;80805;-54
2024/01/05 04:31:43;;;;;;;1.58;1.27;;;22.70;43.50;;;;;;6212779;27;79932;-49
2024/01/05 04:34:44;;;;;;;1.55;1.08;;;22.70;43.30;;;;;;6202022;27;81021;-54
2024/01/05 04:37:44;;;;;;;1.75;0.93;;;22.70;43.30;;;;;;6207457;28;80407;-49
2024/01/05 04:40:45;;;;;;;1.27;1.00;;;22.70;43.30;;;;;;6202428;27;80712;-53
2024/01/05 04:43:45;;;;;;;1.75;1.20;;;22.70;43.40;;;;;;6204770;27;80572;-48
2024/01/05 04:46:46;;;;;;;2.40;1.50;;;22.70;43.30;;;;;;6202493;28;80395;-51
2024/01/05 04:49:46;;;;;;;1.55;1.13;;;22.70;43.30;;;;;;6203568;28;81249;-65
2024/01/05 04:52:47;;;;;;;3.30;1.17;;;22.60;43.20;;;;;;6205761;27;81164;-65
2024/01/05 04:55:47;;;;;;;1.10;1.00;;;22.70;43.50;;;;;;6202721;28;81263;-63
2024/01/05 04:58:48;;;;;;;2.72;1.30;;;22.70;43.10;;;;;;6203806;28;81613;-61
2024/01/05 05:01:48;;;;;;;1.20;1.02;;;22.70;43.30;;;;;;6213041;27;80904;-62
2024/01/05 05:04:49;;;;;;;2.53;1.05;;;22.70;43.30;;;;;;6219652;27;80951;-63
2024/01/05 05:07:49;;;;;;;1.90;1.05;;;22.70;43.30;;;;;;6211940;27;80712;-50
2024/01/05 05:10:50;;;;;;;2.33;1.25;;;22.70;43.80;;;;;;6214981;27;80948;-50
2024/01/05 05:13:50;;;;;;;2.65;1.15;;;22.70;43.80;;;;;;6208780;27;85862;-48
2024/01/05 05:16:51;;;;;;;2.42;1.33;;;22.70;44.10;;;;;;6215642;27;80929;-49
2024/01/05 05:19:54;;;;;;;2.08;1.15;;;22.70;44.20;;;;;;6222943;27;82532;-47
2024/01/05 05:22:54;;;;;;;1.92;1.65;;;22.80;44.90;;;;;;6220048;27;80780;-47
2024/01/05 05:25:55;;;;;;;2.03;1.15;;;22.80;45.20;;;;;;6217419;28;82660;-55
2024/01/05 05:28:55;;;;;;;1.50;1.00;;;22.80;45.70;;;;;;6218614;28;80996;-59
2024/01/05 05:31:56;;;;;;;7.22;1.60;;;22.80;45.50;;;;;;6218289;28;80527;-58
2024/01/05 05:34:56;;;;;;;2.38;1.60;;;22.80;45.10;;;;;;6213791;28;83745;-57
2024/01/05 05:37:57;;;;;;;3.42;1.75;;;22.80;44.90;;;;;;6213001;27;80937;-60
2024/01/05 05:40:57;;;;;;;4.75;1.92;;;22.80;44.90;;;;;;6214728;27;80981;-64
2024/01/05 05:43:58;;;;;;;2.85;1.40;;;22.80;44.40;;;;;;6214711;27;80569;-51
2024/01/05 05:46:58;;;;;;;7.55;1.45;;;22.70;44.50;;;;;;6213271;28;80725;-49
2024/01/05 05:49:59;;;;;;;2.03;1.40;;;22.70;44.50;;;;;;6220870;27;80923;-48
2024/01/05 05:52:59;;;;;;;7.03;1.50;;;22.80;44.50;;;;;;6219424;27;80835;-52
2024/01/05 05:56:00;;;;;;;2.72;1.42;;;22.70;44.30;;;;;;6218419;27;80365;-50
2024/01/05 05:59:00;;;;;;;5.95;1.65;;;22.70;44.10;;;;;;6219754;27;80642;-52
2024/01/05 06:02:01;;;;;;;3.97;1.77;;;22.70;44.10;;;;;;6209371;27;80251;-52
2024/01/05 06:05:01;;;;;;;3.63;1.60;;;22.70;44.00;;;;;;6222086;27;80259;-53
2024/01/05 06:08:02;;;;;;;3.33;1.60;;;22.60;43.70;;;;;;6221469;27;80867;-53
2024/01/05 06:11:02;;;;;;;4.57;1.80;;;22.60;43.50;;;;;;6207003;28;80478;-52
2024/01/05 06:14:04;;;;;;;2.63;1.75;;;22.60;43.40;;;;;;6208389;27;80609;-48
2024/01/05 06:17:04;;;;;;;2.13;1.60;;;22.50;43.10;;;;;;6199586;27;80496;-50
2024/01/05 06:20:07;;;;;;;2.72;1.55;;;22.50;42.90;;;;;;6211304;27;80329;-49
2024/01/05 06:23:08;;;;;;;2.75;1.80;;;22.50;42.70;;;;;;6224647;27;82446;-53
2024/01/05 06:26:08;;;;;;;8.25;2.28;;;22.40;42.40;;;;;;6230226;27;83187;-52
2024/01/05 06:29:09;;;;;;;3.00;1.98;;;22.40;42.60;;;;;;6226458;27;81304;-52
2024/01/05 06:32:09;;;;;;;3.28;1.63;;;22.40;42.60;;;;;;6212747;28;80278;-49
2024/01/05 06:35:11;;;;;;;3.10;2.13;;;22.40;42.30;;;;;;6201868;27;80510;-50
2024/01/05 06:38:12;;;;;;;2.17;1.90;;;22.30;42.30;;;;;;6216840;28;80788;-55
2024/01/05 06:41:12;;;;;;;3.92;2.33;;;22.30;42.40;;;;;;6217220;27;83956;-54
2024/01/05 06:44:13;;;;;;;6.18;3.35;;;22.40;42.40;;;;;;6200155;28;82751;-56
2024/01/05 06:47:13;;;;;;;6.68;3.30;;;22.30;42.70;;;;;;6216777;28;83331;-55
2024/01/05 06:50:14;;;;;;;5.03;2.53;;;22.30;42.70;;;;;;6219079;27;80431;-50
2024/01/05 06:53:15;;;;;;;7.55;3.28;;;22.30;42.80;;;;;;6216649;27;80112;-57
2024/01/05 06:56:18;;;;;;;6.90;2.65;;;22.30;42.60;;;;;;6193380;27;81982;-57
2024/01/05 06:59:20;;;;;;;4.28;2.65;;;22.30;42.10;;;;;;6200001;28;81232;-58
2024/01/05 07:02:20;;;;;;;4.55;2.55;;;22.30;42.10;;;;;;6191125;27;81099;-56
2024/01/05 07:05:21;;;;;;;5.97;3.25;;;22.30;42.10;;;;;;6218512;27;80550;-55
2024/01/05 07:08:21;;;;;;;8.73;2.70;;;22.30;42.40;;;;;;6225145;27;82238;-57
2024/01/05 07:11:22;;;;;;;5.97;2.75;;;22.30;42.30;;;;;;6221092;27;83131;-57
2024/01/05 07:14:22;;;;;;;4.68;2.78;;;22.30;42.20;;;;;;6222998;27;80528;-65
2024/01/05 07:17:23;;;;;;;2.83;1.90;;;22.20;42.00;;;;;;6221944;27;80452;-66
2024/01/05 07:20:23;;;;;;;5.20;2.72;;;22.20;41.90;;;;;;6225992;27;81637;-66
2024/01/05 07:23:24;;;;;;;3.67;2.55;;;22.20;41.70;;;;;;6225278;27;80533;-66
2024/01/05 07:26:24;;;;;;;3.70;2.30;;;22.20;41.70;;;;;;6226438;27;82608;-65
2024/01/05 07:29:25;;;;;;;3.25;2.25;;;22.20;41.60;;;;;;6224979;27;80065;-67
2024/01/05 07:32:25;;;;;;;3.63;2.45;;;22.20;41.50;;;;;;6225645;27;82307;-51
2024/01/05 07:35:26;;;;;;;4.75;2.20;;;22.20;41.40;;;;;;6222090;27;82519;-51
2024/01/05 07:38:26;;;;;;;3.42;2.17;;;22.20;41.40;;;;;;6219692;27;83037;-54
2024/01/05 07:41:27;;;;;;;3.83;2.75;;;22.20;41.30;;;;;;6224383;27;84742;-49
2024/01/05 07:44:27;;;;;;;5.20;2.78;;;22.10;39.90;;;;;;6216177;27;80797;-48
2024/01/05 07:47:28;;;;;;;3.65;2.20;;;22.00;39.40;;;;;;6198182;27;84092;-51
2024/01/05 07:50:30;;;;;;;4.43;2.72;;;21.90;38.90;;;;;;6211030;27;82940;-47
2024/01/05 07:53:30;;;;;;;5.13;2.63;;;21.80;39.00;;;;;;6218767;28;81405;-47
2024/01/05 07:56:30;;;;;;;4.38;2.70;;;21.70;38.70;;;;;;6218748;28;83566;-47
2024/01/05 07:59:31;;;;;;;3.35;2.55;;;21.60;38.40;;;;;;6213975;27;80836;-51
2024/01/05 08:02:31;;;;;;;3.45;2.70;;;21.50;38.60;;;;;;6214504;27;80446;-47
2024/01/05 08:05:32;;;;;;;4.40;2.65;;;21.50;38.90;;;;;;6211146;28;80930;-48
2024/01/05 08:08:32;;;;;;;3.58;2.67;;;21.40;38.60;;;;;;6214546;28;82916;-47
2024/01/05 08:11:33;;;;;;;5.60;2.45;;;21.40;38.50;;;;;;6209123;27;82888;-50
2024/01/05 08:14:33;;;;;;;3.88;2.58;;;21.30;38.50;;;;;;6213724;27;80948;-48
2024/01/05 08:17:34;;;;;;;6.53;3.08;;;21.30;38.30;;;;;;6219684;27;81534;-50
2024/01/05 08:20:34;;;;;;;5.95;4.15;;;21.30;38.20;;;;;;6200764;27;86527;-49
2024/01/05 08:23:35;;;;;;;5.15;3.58;;;21.30;38.20;;;;;;6244775;27;81977;-50
2024/01/05 08:26:35;;;;;;;4.93;3.25;;;21.20;38.00;;;;;;6219265;28;80679;-59
2024/01/05 08:29:36;;;;;;;4.13;2.92;;;21.10;37.70;;;;;;6212758;27;83909;-50
2024/01/05 08:32:37;;;;;;;5.93;3.40;;;21.00;38.10;;;;;;6204569;27;80953;-54
2024/01/05 08:35:38;;;;;;;6.75;3.05;;;21.00;38.40;;;;;;6206789;27;83586;-49
2024/01/05 08:38:38;;;;;;;7.35;3.60;;;21.00;38.00;;;;;;6212669;27;80353;-49
2024/01/05 08:41:38;;;;;;;11.60;6.63;;;20.70;37.80;;;;;;6228606;27;80676;-50
2024/01/05 08:44:40;;;;;;;10.68;5.75;;;20.50;38.10;;;;;;6200404;27;84604;-49
2024/01/05 08:47:41;;;;;;;9.63;5.82;;;20.40;38.30;;;;;;6215857;27;80382;-50
2024/01/05 08:50:41;;;;;;;11.60;5.68;;;20.30;38.40;;;;;;6213141;27;80409;-50
2024/01/05 08:53:42;;;;;;;10.43;5.55;;;20.30;38.60;;;;;;6215090;27;80471;-48
2024/01/05 08:56:42;;;;;;;10.63;5.03;;;20.20;38.70;;;;;;6215724;27;83331;-47
2024/01/05 08:59:43;;;;;;;8.55;5.50;;;20.20;38.90;;;;;;6216206;27;83632;-49
2024/01/05 09:02:44;;;;;;;8.98;5.85;;;20.20;38.80;;;;;;6218560;27;81810;-47
2024/01/05 09:05:45;;;;;;;8.93;5.47;;;20.10;38.70;;;;;;6220258;27;83598;-47
2024/01/05 09:08:46;;;;;;;8.90;5.68;;;20.00;38.70;;;;;;6225038;27;81538;-47
2024/01/05 09:11:46;;;;;;;11.15;6.70;;;20.00;38.80;;;;;;6220668;27;80434;-49
2024/01/05 09:14:47;;;;;;;14.43;7.50;;;20.00;38.80;;;;;;6222951;27;80607;-47
2024/01/05 09:17:47;;;;;;;12.30;6.93;;;20.00;38.90;;;;;;6219338;27;80646;-52
2024/01/05 09:20:48;;;;;;;12.68;7.35;;;20.00;38.70;;;;;;6204306;28;81902;-50
2024/01/05 09:23:48;;;;;;;13.13;7.10;;;19.90;38.70;;;;;;6218157;27;83503;-67
2024/01/05 09:26:49;;;;;;;12.27;7.22;;;20.00;39.00;;;;;;6191685;27;83292;-69
2024/01/05 09:29:49;;;;;;;12.52;7.35;;;19.90;39.00;;;;;;6219293;27;80427;-69
2024/01/05 09:32:50;;;;;;;12.60;8.27;;;19.90;39.20;;;;;;6205354;28;83307;-69
2024/01/05 09:35:51;;;;;;;12.18;7.88;;;20.00;39.20;;;;;;6216215;27;84041;-68
2024/01/05 09:38:51;;;;;;;10.95;7.35;;;19.90;39.10;;;;;;6219398;27;80725;-68
2024/01/05 09:41:53;;;;;;;12.02;7.18;;;19.90;39.20;;;;;;6214569;27;80181;-60
2024/01/05 09:44:53;;;;;;;10.27;6.90;;;20.00;39.20;;;;;;6221509;27;81278;-59
2024/01/05 09:47:57;;;;;;;11.88;7.70;;;20.00;39.20;;;;;;6220541;27;81691;-59
2024/01/05 09:50:57;;;;;;;9.93;7.07;;;20.20;39.30;;;;;;6214222;27;80570;-59
2024/01/05 09:53:58;;;;;;;15.05;7.55;;;20.30;39.20;;;;;;6217246;27;80594;-59
2024/01/05 09:56:59;;;;;;;10.77;7.15;;;20.30;39.10;;;;;;6212861;28;80837;-60
2024/01/05 10:00:03;;;;;;;10.98;7.05;;;20.30;39.00;;;;;;6219077;28;86976;-67
2024/01/05 10:03:12;;;;;;;10.23;6.72;;;20.20;39.00;;;;;;6195632;27;81315;-66
2024/01/05 10:06:13;;;;;;;9.80;6.82;;;20.10;38.90;;;;;;6217456;27;81789;-68
2024/01/05 10:09:13;;;;;;;10.02;6.13;;;20.00;39.00;;;;;;6216152;28;87316;-66
2024/01/05 10:12:14;;;;;;;10.35;6.18;;;20.00;39.10;;;;;;6217568;27;80796;-67
2024/01/05 10:15:14;;;;;;;9.23;6.13;;;20.00;39.20;;;;;;6213947;28;81270;-68
2024/01/05 10:18:15;;;;;;;8.57;5.72;;;20.00;39.20;;;;;;6222157;27;81528;-51
2024/01/05 10:21:16;;;;;;;8.10;5.78;;;19.90;39.20;;;;;;6214482;27;80809;-50
2024/01/05 10:24:16;;;;;;;8.00;5.65;;;19.90;39.20;;;;;;6215962;27;80993;-52
2024/01/05 10:27:17;;;;;;;9.38;6.18;;;19.90;39.30;;;;;;6212501;28;80545;-48
2024/01/05 10:30:17;;;;;;;7.68;5.35;;;19.80;39.20;;;;;;6207735;28;80526;-48
2024/01/05 10:33:19;;;;;;;9.32;5.47;;;19.80;39.30;;;;;;6223116;27;81827;-48
2024/01/05 10:36:19;;;;;;;7.45;5.20;;;19.70;39.20;;;;;;6221337;28;89270;-50
2024/01/05 10:39:20;;;;;;;8.68;5.35;;;19.70;39.30;;;;;;6214498;27;81897;-55
2024/01/05 10:42:21;;;;;;;5.97;5.05;;;19.70;39.40;;;;;;6222541;27;83159;-50
2024/01/05 10:45:22;;;;;;;7.25;4.85;;;19.70;39.40;;;;;;6215212;27;80237;-51
2024/01/05 10:48:22;;;;;;;8.07;5.38;;;19.60;39.40;;;;;;6219462;27;81697;-51
2024/01/05 10:51:23;;;;;;;6.55;4.90;;;19.70;39.60;;;;;;6225382;27;80617;-49
2024/01/05 10:54:24;;;;;;;11.15;5.97;;;19.60;39.50;;;;;;6223735;27;82422;-50
2024/01/05 10:57:24;;;;;;;8.40;5.85;;;19.60;39.60;;;;;;6224209;27;80579;-49
2024/01/05 11:00:25;;;;;;;6.70;5.25;;;19.60;39.60;;;;;;6219898;27;83066;-54
2024/01/05 11:03:25;;;;;;;6.70;5.30;;;19.60;39.60;;;;;;6224609;27;80192;-51
2024/01/05 11:06:26;;;;;;;6.93;5.00;;;19.60;39.80;;;;;;6211554;28;81031;-52
2024/01/05 11:09:26;;;;;;;9.18;5.63;;;19.60;39.80;;;;;;6221499;27;82574;-50
2024/01/05 11:12:27;;;;;;;7.40;5.43;;;19.50;39.60;;;;;;6218741;27;80525;-49
2024/01/05 11:15:28;;;;;;;9.05;6.30;;;19.60;39.60;;;;;;6226611;27;81041;-65
2024/01/05 11:18:28;;;;;;;7.85;5.90;;;19.50;39.60;;;;;;6218062;27;83462;-61
2024/01/05 11:21:29;;;;;;;9.10;6.00;;;19.40;39.60;;;;;;6226548;27;81476;-65
2024/01/05 11:24:29;;;;;;;11.20;6.13;;;19.20;39.70;;;;;;6211080;27;83197;-64
2024/01/05 11:27:30;;;;;;;9.05;5.72;;;19.30;40.00;;;;;;6225592;27;81518;-68
2024/01/05 11:30:30;;;;;;;9.27;5.70;;;19.30;40.10;;;;;;6214022;27;81272;-67
2024/01/05 11:33:31;;;;;;;8.90;5.30;;;19.40;40.10;;;;;;6237128;27;82325;-67
2024/01/05 11:36:31;;;;;;;7.90;5.13;;;19.40;40.00;;;;;;6221503;27;80537;-68
2024/01/05 11:39:32;;;;;;;9.82;6.00;;;19.50;39.90;;;;;;6217141;27;81040;-67
2024/01/05 11:42:35;;;;;;;10.57;6.45;;;19.50;39.60;;;;;;6219072;27;80932;-66
2024/01/05 11:45:36;;;;;;;8.95;6.28;;;19.60;39.70;;;;;;6223881;27;81179;-62
2024/01/05 11:48:36;;;;;;;10.73;6.15;;;19.90;39.50;;;;;;6218420;27;83251;-67
2024/01/05 11:51:37;;;;;;;7.85;5.07;;;20.10;39.30;;;;;;6217553;27;81061;-49
2024/01/05 11:54:37;;;;;;;7.55;5.20;;;20.40;39.00;;;;;;6210113;27;81530;-47
2024/01/05 11:57:38;;;;;;;10.85;6.70;;;20.60;38.80;;;;;;6213729;27;82462;-52
2024/01/05 12:00:42;;;;;;;10.60;5.93;;;20.80;38.60;;;;;;6217499;27;80508;-48
2024/01/05 12:03:43;;;;;;;10.20;6.15;;;21.00;38.40;;;;;;6225375;28;82993;-51
2024/01/05 12:06:43;;;;;;;9.20;5.95;;;21.10;38.00;;;;;;6210222;27;81363;-49
2024/01/05 12:09:44;;;;;;;9.07;5.90;;;21.10;38.00;;;;;;6189196;27;81035;-50
2024/01/05 12:12:45;;;;;;;9.27;5.50;;;21.20;37.90;;;;;;6220751;27;81233;-49
2024/01/05 12:15:45;;;;;;;10.38;6.22;;;21.20;37.90;;;;;;6223203;27;81740;-52
2024/01/05 12:18:47;;;;;;;9.88;6.30;;;21.20;37.70;;;;;;6222134;27;80699;-54
2024/01/05 12:21:48;;;;;;;9.30;5.82;;;21.30;37.60;;;;;;6218286;27;82805;-54
2024/01/05 12:24:48;;;;;;;7.57;5.22;;;21.30;37.60;;;;;;6222674;27;80503;-54
2024/01/05 12:27:49;;;;;;;8.95;5.97;;;21.30;37.50;;;;;;6221839;27;83234;-68
2024/01/05 12:30:50;;;;;;;12.65;7.15;;;21.40;37.50;;;;;;6226208;27;80490;-68
2024/01/05 12:33:51;;;;;;;9.80;5.80;;;21.40;37.50;;;;;;6219130;27;81856;-68
2024/01/05 12:36:51;;;;;;;10.60;6.40;;;21.50;37.50;;;;;;6217660;27;84335;-67
2024/01/05 12:39:52;;;;;;;10.95;6.88;;;21.50;37.30;;;;;;6218368;27;80630;-66
2024/01/05 12:42:52;;;;;;;10.50;6.15;;;21.50;37.30;;;;;;6214331;27;80387;-66
2024/01/05 12:45:53;;;;;;;12.45;7.05;;;21.50;37.30;;;;;;6222028;27;81054;-54
2024/01/05 12:48:54;;;;;;;10.88;6.75;;;21.40;37.40;;;;;;6192687;27;82945;-53
2024/01/05 12:51:55;;;;;;;11.30;6.55;;;21.10;37.60;;;;;;6218715;27;83004;-50
2024/01/05 12:54:56;;;;;;;10.80;6.88;;;21.00;37.70;;;;;;6215246;27;80513;-53
2024/01/05 12:57:56;;;;;;;9.00;5.50;;;21.10;38.00;;;;;;6208506;27;82664;-51
2024/01/05 13:00:59;;;;;;;11.27;5.95;;;21.20;38.00;;;;;;6216546;27;83044;-52
2024/01/05 13:04:00;;;;;;;7.15;5.40;;;21.10;38.20;;;;;;6219046;27;80502;-50
2024/01/05 13:07:01;;;;;;;9.00;4.97;;;21.30;38.90;;;;;;6222296;27;80995;-53
2024/01/05 13:10:02;;;;;;;8.70;5.57;;;21.40;39.40;;;;;;6217161;27;81954;-52
2024/01/05 13:13:03;;;;;;;6.78;4.68;;;21.60;39.40;;;;;;6216211;27;84856;-54
2024/01/05 13:16:03;;;;;;;8.88;4.70;;;21.70;39.60;;;;;;6217745;28;80538;-48
2024/01/05 13:19:07;;;;;;;7.32;4.85;;;21.70;39.80;;;;;;6211398;27;80527;-55
2024/01/05 13:22:11;;;;;;;6.65;4.40;;;21.80;39.80;;;;;;6217679;27;84556;-54
2024/01/05 13:25:12;;;;;;;7.70;4.65;;;21.80;40.00;;;;;;6217989;27;82069;-54
2024/01/05 13:28:12;;;;;;;6.05;4.40;;;21.80;40.20;;;;;;6199123;27;80474;-56
2024/01/05 13:31:13;;;;;;;6.13;4.40;;;21.80;40.40;;;;;;6220049;27;80906;-56
2024/01/05 13:34:14;;;;;;;8.98;4.38;;;21.90;40.20;;;;;;6222912;27;81785;-55
2024/01/05 13:37:15;;;;;;;6.05;4.25;;;21.90;40.30;;;;;;6221312;27;82078;-56
2024/01/05 13:40:15;;;;;;;7.60;4.88;;;22.00;40.10;;;;;;6213329;27;82980;-47
2024/01/05 13:43:16;;;;;;;9.25;4.72;;;22.00;40.20;;;;;;6221915;27;81668;-51
2024/01/05 13:46:16;;;;;;;6.63;3.92;;;22.00;40.20;;;;;;6224420;27;81935;-52
2024/01/05 13:49:17;;;;;;;7.60;4.30;;;22.10;40.00;;;;;;6219148;27;81655;-49
2024/01/05 13:52:20;;;;;;;4.85;3.63;;;22.20;39.80;;;;;;6217084;27;84776;-50
2024/01/05 13:55:21;;;;;;;5.60;4.00;;;22.10;39.70;;;;;;6222327;27;80514;-52
2024/01/05 13:58:22;;;;;;;5.85;4.22;;;22.10;39.80;;;;;;6220377;27;80746;-50
2024/01/05 14:01:23;;;;;;;5.70;3.75;;;22.10;39.70;;;;;;6217721;27;81769;-48
2024/01/05 14:04:23;;;;;;;5.75;3.88;;;22.20;39.80;;;;;;6215240;27;81901;-52
2024/01/05 14:07:24;;;;;;;6.95;3.85;;;22.20;39.90;;;;;;6225454;27;84684;-52
2024/01/05 14:10:25;;;;;;;6.47;3.83;;;22.20;40.20;;;;;;6220559;27;80408;-48
2024/01/05 14:13:25;;;;;;;5.25;3.65;;;22.30;40.60;;;;;;6212670;27;81319;-51
2024/01/05 14:16:26;;;;;;;5.68;3.90;;;22.30;40.50;;;;;;6215674;27;80423;-53
2024/01/05 14:19:26;;;;;;;5.38;3.72;;;22.40;40.60;;;;;;6213374;27;80763;-51
2024/01/05 14:22:27;;;;;;;5.50;3.72;;;22.40;40.60;;;;;;6217350;27;80852;-49
2024/01/05 14:25:27;;;;;;;5.20;3.80;;;22.40;40.60;;;;;;6217229;27;80646;-54
2024/01/05 14:28:28;;;;;;;5.10;3.45;;;22.50;40.70;;;;;;6201769;27;80423;-52
2024/01/05 14:31:28;;;;;;;7.15;4.22;;;22.50;40.70;;;;;;6219330;27;80912;-50
2024/01/05 14:34:29;;;;;;;6.45;3.90;;;22.50;40.60;;;;;;6217272;27;82775;-52
2024/01/05 14:37:29;;;;;;;5.38;3.83;;;22.50;40.60;;;;;;6214847;27;81011;-51
2024/01/05 14:40:30;;;;;;;8.13;4.18;;;22.50;40.50;;;;;;6213148;27;81416;-48
2024/01/05 14:43:31;;;;;;;7.40;3.60;;;22.50;40.50;;;;;;6218475;27;81111;-47
2024/01/05 14:46:31;;;;;;;4.72;3.63;;;22.60;40.50;;;;;;6211689;27;80634;-47
2024/01/05 14:49:32;;;;;;;6.38;4.32;;;22.60;40.70;;;;;;6218031;27;82421;-53
2024/01/05 14:52:32;;;;;;;7.30;4.72;;;22.60;40.60;;;;;;6212472;27;81420;-48
2024/01/05 14:55:33;;;;;;;5.82;3.80;;;22.60;40.90;;;;;;6215324;27;80389;-48
2024/01/05 14:58:33;;;;;;;7.85;3.83;;;22.60;41.30;;;;;;6221200;27;80967;-50
2024/01/05 15:01:34;;;;;;;5.70;3.88;;;22.60;41.70;;;;;;6204917;27;82282;-46
2024/01/05 15:04:34;;;;;;;6.45;4.38;;;22.60;42.00;;;;;;6223101;27;80573;-49
2024/01/05 15:07:35;;;;;;;8.02;4.00;;;22.60;42.40;;;;;;6223697;28;81394;-49
2024/01/05 15:10:35;;;;;;;8.05;5.07;;;22.60;42.80;;;;;;6213398;27;80517;-52
2024/01/05 15:13:36;;;;;;;5.40;4.10;;;22.60;42.90;;;;;;6214970;27;80549;-67
2024/01/05 15:16:36;;;;;;;5.65;4.20;;;22.60;42.90;;;;;;6209142;27;80305;-64
2024/01/05 15:19:37;;;;;;;7.22;4.47;;;22.60;43.00;;;;;;6218786;27;81035;-67
2024/01/05 15:22:37;;;;;;;6.45;4.43;;;22.60;43.00;;;;;;6222652;27;80850;-65
2024/01/05 15:25:38;;;;;;;6.65;4.18;;;22.60;43.10;;;;;;6217607;27;80610;-65
2024/01/05 15:28:38;;;;;;;6.88;4.75;;;22.60;43.00;;;;;;6210589;27;80390;-62
2024/01/05 15:31:39;;;;;;;6.75;4.40;;;22.60;43.00;;;;;;6221470;28;80713;-50
2024/01/05 15:34:39;;;;;;;7.25;4.30;;;22.60;43.00;;;;;;6217338;28;87299;-52
2024/01/05 15:37:41;;;;;;;7.97;5.03;;;22.70;43.00;;;;;;6223642;27;82497;-52